Time;durP1;ratioP1;P1;durP2;ratioP2;P2;SDS_P1;SDS_P2;PMS_P1;PMS_P2;Temp;Humidity;BMP_temperature;BMP_pressure;BME280_temperature;BME280_humidity;BME280_pressure;Samples;Min_cycle;Max_cycle;Signal;HPM_P1;HPM_P2
2022/09/03 00:01:09;;;;;;;3.15;2.42;;;;;;;13.85;75.27;101200.06;5013871;28;20030;-75
2022/09/03 00:03:44;;;;;;;6.07;2.40;;;;;;;13.84;75.80;101193.03;5079365;28;20032;-75
2022/09/03 00:06:19;;;;;;;2.92;2.40;;;;;;;13.82;75.79;101191.47;5061767;28;20022;-75
2022/09/03 00:09:00;;;;;;;4.38;2.35;;;;;;;13.80;75.53;101188.13;5096220;28;20099;-75
2022/09/03 00:11:49;;;;;;;9.13;2.30;;;;;;;13.77;76.13;101183.09;5096339;28;20030;-74
2022/09/03 00:14:24;;;;;;;12.02;2.70;;;;;;;13.73;75.86;101179.84;5095837;28;20031;-75
2022/09/03 00:16:54;;;;;;;2.67;2.45;;;;;;;13.72;75.36;101179.03;5095768;28;20026;-75
2022/09/03 00:19:25;;;;;;;3.53;2.03;;;;;;;13.75;74.51;101180.56;5096234;28;20040;-75
2022/09/03 00:21:55;;;;;;;;;;;;;;;13.73;74.79;101167.34;5096178;28;20027;-75
2022/09/03 00:24:23;;;;;;;7.78;2.20;;;;;;;13.74;74.60;101169.00;5095677;28;19951;-75
2022/09/03 00:26:56;;;;;;;4.25;2.15;;;;;;;13.74;74.10;101168.19;5095569;28;20020;-75
2022/09/03 00:29:29;;;;;;;9.30;2.60;;;;;;;13.72;75.16;101176.34;5096154;28;20459;-75
2022/09/03 00:32:05;;;;;;;3.03;2.05;;;;;;;13.73;75.19;101175.38;5095471;28;20055;-75
2022/09/03 00:34:42;;;;;;;4.38;2.10;;;;;;;13.70;75.36;101175.69;5077090;28;20522;-75
2022/09/03 00:37:09;;;;;;;4.82;2.40;;;;;;;13.70;74.91;101170.31;5095719;28;20024;-75
2022/09/03 00:39:35;;;;;;;3.67;2.80;;;;;;;13.75;74.54;101172.53;5095111;28;20417;-74
2022/09/03 00:42:19;;;;;;;12.77;2.47;;;;;;;13.81;73.95;101176.41;5095310;28;20023;-75
2022/09/03 00:44:57;;;;;;;5.70;2.35;;;;;;;13.84;74.54;101166.28;5095511;28;20077;-75
2022/09/03 00:47:39;;;;;;;5.85;2.35;;;;;;;13.87;74.68;101176.66;5094979;28;20028;-75
2022/09/03 00:50:39;;;;;;;6.13;2.40;;;;;;;13.94;73.74;101179.56;5095389;28;20028;-75
2022/09/03 00:53:31;;;;;;;7.43;2.45;;;;;;;13.98;74.09;101175.59;5095276;28;20032;-75
2022/09/03 00:56:26;;;;;;;2.72;2.30;;;;;;;14.03;74.30;101173.31;5090329;28;20048;-75
2022/09/03 00:59:24;;;;;;;4.90;2.10;;;;;;;14.07;74.03;101180.00;5076850;28;20024;-75
2022/09/03 01:02:05;;;;;;;3.45;2.35;;;;;;;14.13;73.89;101177.75;5095009;28;20037;-75
2022/09/03 01:04:51;;;;;;;2.92;2.20;;;;;;;14.17;74.34;101171.91;5094937;28;20035;-75
2022/09/03 01:07:32;;;;;;;2.47;1.98;;;;;;;14.21;74.55;101167.94;5095057;28;20436;-75
2022/09/03 01:10:26;;;;;;;8.82;2.45;;;;;;;14.26;74.13;101167.47;5094923;28;20023;-75
2022/09/03 01:13:14;;;;;;;9.55;2.60;;;;;;;14.30;73.27;101176.84;5095004;28;20028;-75
2022/09/03 01:16:12;;;;;;;5.30;2.65;;;;;;;14.37;72.36;101169.06;5095263;28;20077;-74
2022/09/03 01:18:51;;;;;;;3.67;2.55;;;;;;;14.39;72.66;101178.63;5094298;28;20089;-75
2022/09/03 01:21:57;;;;;;;5.57;2.58;;;;;;;14.40;72.76;101169.56;5094984;28;20027;-74
2022/09/03 01:24:42;;;;;;;4.47;2.30;;;;;;;14.42;72.43;101177.44;5094358;28;20081;-75
2022/09/03 01:27:38;;;;;;;3.13;2.28;;;;;;;14.39;72.29;101175.94;5094463;28;20392;-75
2022/09/03 01:30:15;;;;;;;7.15;2.42;;;;;;;14.38;71.56;101184.97;5093974;28;20034;-75
2022/09/03 01:32:57;;;;;;;3.92;3.08;;;;;;;14.39;71.44;101185.78;5094357;28;20024;-75
2022/09/03 01:35:41;;;;;;;;;;;;;;;14.38;71.75;101179.59;5095123;28;20069;-75
2022/09/03 01:38:25;;;;;;;5.78;2.45;;;;;;;14.36;71.76;101178.06;5094063;28;20340;-75
2022/09/03 01:44:31;;;;;;;2.70;2.10;;;;;;;14.24;71.63;101182.84;5094222;28;20031;-75
2022/09/03 01:47:08;;;;;;;6.32;2.00;;;;;;;14.23;71.34;101182.00;5090965;28;20055;-75
2022/09/03 01:49:40;;;;;;;6.82;2.33;;;;;;;14.19;71.91;101177.13;5094635;28;20020;-75
2022/09/03 01:52:14;;;;;;;9.77;2.55;;;;;;;14.15;72.35;101192.63;5093395;28;20024;-75
2022/09/03 01:55:27;;;;;;;9.43;2.10;;;;;;;14.11;73.12;101183.25;5094152;28;20499;-75
2022/09/03 01:58:05;;;;;;;5.38;2.35;;;;;;;14.05;72.60;101178.50;5012229;28;20029;-75
2022/09/03 02:00:33;;;;;;;3.38;2.40;;;;;;;13.99;72.94;101174.59;5090077;28;20040;-75
2022/09/03 02:03:04;;;;;;;3.88;2.25;;;;;;;13.95;72.88;101170.56;5093187;28;20487;-75
2022/09/03 02:05:30;;;;;;;7.13;2.65;;;;;;;13.89;74.05;101168.50;5094469;28;20027;-75
2022/09/03 02:08:05;;;;;;;5.68;2.28;;;;;;;13.82;74.06;101170.09;5092707;28;20073;-75
2022/09/03 02:10:41;;;;;;;3.03;2.50;;;;;;;13.72;74.93;101162.97;5093873;28;20036;-75
2022/09/03 02:13:35;;;;;;;4.38;2.97;;;;;;;13.65;75.12;101167.25;5093974;28;20073;-77
2022/09/03 02:16:08;;;;;;;2.85;2.33;;;;;;;13.56;76.02;101165.50;5091313;28;20123;-75
2022/09/03 02:18:41;;;;;;;3.83;2.38;;;;;;;13.49;76.08;101167.06;5093220;28;20077;-75
2022/09/03 02:21:07;;;;;;;2.55;2.20;;;;;;;13.39;76.32;101167.97;5094103;28;20110;-75
2022/09/03 02:23:32;;;;;;;2.80;2.13;;;;;;;13.33;77.16;101165.88;5093783;28;20111;-75
2022/09/03 02:26:02;;;;;;;3.20;2.30;;;;;;;13.28;77.83;101165.47;5093291;28;20032;-75
2022/09/03 02:28:30;;;;;;;4.93;2.78;;;;;;;13.22;78.10;101164.22;5075340;28;20081;-75
2022/09/03 02:30:56;;;;;;;4.20;2.50;;;;;;;13.15;78.25;101168.50;5093474;28;20024;-75
2022/09/03 02:33:22;;;;;;;7.60;3.20;;;;;;;13.08;78.91;101164.72;5093243;28;20390;-75
2022/09/03 02:35:47;;;;;;;4.15;2.67;;;;;;;13.00;79.23;101164.63;5093178;28;20030;-75
2022/09/03 02:38:18;;;;;;;5.03;2.60;;;;;;;12.95;79.58;101165.06;5093200;28;20028;-75
2022/09/03 02:40:44;;;;;;;3.28;2.20;;;;;;;12.90;79.66;101162.00;5093446;28;20027;-75
2022/09/03 02:43:38;;;;;;;2.55;2.35;;;;;;;12.83;79.95;101164.41;5075064;28;20398;-75
2022/09/03 02:46:07;;;;;;;4.20;2.35;;;;;;;12.75;80.56;101161.63;5064858;28;20494;-75
2022/09/03 02:48:33;;;;;;;4.53;2.30;;;;;;;12.70;80.49;101159.41;5093316;28;20474;-75
2022/09/03 02:50:58;;;;;;;5.22;2.28;;;;;;;12.65;81.37;101163.47;5093130;28;20024;-75
2022/09/03 02:53:24;;;;;;;3.40;2.53;;;;;;;12.59;81.66;101158.72;5074953;28;20028;-75
2022/09/03 02:55:50;;;;;;;6.85;2.45;;;;;;;12.53;82.42;101158.31;5092691;28;20016;-75
2022/09/03 02:58:15;;;;;;;2.42;2.22;;;;;;;12.50;82.37;101163.09;5093048;28;20031;-73
2022/09/03 03:00:40;;;;;;;4.68;2.30;;;;;;;12.46;83.19;101153.69;5093082;28;20030;-73
2022/09/03 03:03:06;;;;;;;3.78;2.50;;;;;;;12.42;83.94;101157.63;5092988;28;20027;-74
2022/09/03 03:05:56;;;;;;;4.82;2.58;;;;;;;12.41;84.43;101163.97;5074704;28;20028;-73
2022/09/03 03:08:23;;;;;;;4.50;2.53;;;;;;;12.39;84.29;101160.56;5093124;28;20027;-73
2022/09/03 03:10:51;;;;;;;3.42;2.70;;;;;;;12.34;85.20;101161.84;5074864;28;20398;-73
2022/09/03 03:13:17;;;;;;;5.82;3.13;;;;;;;12.31;84.65;101158.63;5092774;28;20435;-74
2022/09/03 03:15:43;;;;;;;3.10;2.53;;;;;;;12.28;84.49;101153.56;5092759;28;20031;-74
2022/09/03 03:18:13;;;;;;;3.65;2.60;;;;;;;12.26;85.49;101158.22;5074841;28;20043;-74
2022/09/03 03:20:39;;;;;;;6.13;2.40;;;;;;;12.24;86.03;101153.03;5096853;28;20026;-74
2022/09/03 03:23:06;;;;;;;3.10;2.60;;;;;;;12.22;86.34;101157.66;5096732;28;20035;-74
2022/09/03 03:25:36;;;;;;;2.50;2.30;;;;;;;12.20;86.74;101162.31;5096615;28;20020;-74
2022/09/03 03:28:03;;;;;;;7.40;2.63;;;;;;;12.15;86.96;101160.06;5078300;28;20459;-74
2022/09/03 03:30:30;;;;;;;2.70;2.50;;;;;;;12.15;87.29;101160.06;5096262;28;20134;-74
2022/09/03 03:32:55;;;;;;;3.58;2.80;;;;;;;12.10;86.82;101154.28;5096513;28;20028;-74
2022/09/03 03:35:21;;;;;;;8.63;3.08;;;;;;;12.09;87.21;101155.28;5078261;28;20631;-73
2022/09/03 03:37:47;;;;;;;5.90;2.50;;;;;;;12.07;86.93;101162.56;5096516;28;20024;-74
2022/09/03 03:40:14;;;;;;;4.25;2.47;;;;;;;12.05;87.14;101163.72;5096384;28;20059;-74
2022/09/03 03:42:40;;;;;;;6.30;2.72;;;;;;;12.04;87.67;101162.03;5096155;28;20111;-74
2022/09/03 03:45:06;;;;;;;4.68;2.60;;;;;;;12.03;87.38;101176.34;5096068;28;20123;-74
2022/09/03 03:47:32;;;;;;;3.33;2.65;;;;;;;12.03;88.11;101163.00;5096211;28;20078;-74
2022/09/03 03:49:58;;;;;;;4.03;2.42;;;;;;;12.04;88.30;101170.03;5096150;28;20086;-74
2022/09/03 03:52:24;;;;;;;6.32;2.40;;;;;;;12.06;88.55;101166.25;5096811;28;20020;-74
2022/09/03 03:54:50;;;;;;;5.07;2.63;;;;;;;12.09;88.65;101163.28;5095975;28;20032;-73
2022/09/03 03:57:18;;;;;;;6.97;2.88;;;;;;;12.12;88.39;101163.00;5095813;28;20448;-74
2022/09/03 03:59:44;;;;;;;3.67;2.45;;;;;;;12.16;88.24;101160.88;5096548;28;20077;-73
2022/09/03 04:02:09;;;;;;;6.15;2.72;;;;;;;12.19;87.94;101165.09;5095828;28;20406;-74
2022/09/03 04:04:35;;;;;;;4.10;2.80;;;;;;;12.27;87.49;101167.88;5095862;28;20058;-74
2022/09/03 04:07:00;;;;;;;4.25;2.42;;;;;;;12.33;87.17;101165.50;5096250;28;20353;-74
2022/09/03 04:09:26;;;;;;;4.18;2.53;;;;;;;12.41;86.50;101159.47;5095679;28;20032;-74
2022/09/03 04:11:51;;;;;;;5.07;2.65;;;;;;;12.51;85.30;101159.44;5095787;28;20085;-74
2022/09/03 04:14:17;;;;;;;3.22;2.38;;;;;;;12.60;84.84;101163.06;5077513;28;20464;-74
2022/09/03 04:16:45;;;;;;;4.15;2.50;;;;;;;12.70;84.08;101161.22;5077235;28;20028;-74
2022/09/03 04:19:11;;;;;;;5.63;2.50;;;;;;;12.78;82.99;101166.69;5095025;28;20048;-74
2022/09/03 04:21:37;;;;;;;7.65;2.80;;;;;;;12.81;82.74;101154.88;5077648;28;20036;-74
2022/09/03 04:24:04;;;;;;;5.60;2.42;;;;;;;12.85;82.72;101161.56;5095523;28;20157;-74
2022/09/03 04:26:31;;;;;;;5.53;2.95;;;;;;;12.84;82.62;101158.06;5095647;28;20028;-73
2022/09/03 04:29:07;;;;;;;3.45;2.50;;;;;;;12.82;82.75;101162.72;5095043;28;20028;-73
2022/09/03 04:31:34;;;;;;;4.03;2.80;;;;;;;12.77;82.70;101153.47;5091271;28;20032;-76
2022/09/03 04:34:00;;;;;;;6.07;2.78;;;;;;;12.74;82.94;101159.09;5091852;28;20420;-77
2022/09/03 04:36:27;;;;;;;5.15;2.90;;;;;;;12.67;82.85;101154.34;5073352;28;20039;-76
2022/09/03 04:38:54;;;;;;;4.10;2.60;;;;;;;12.63;83.08;101154.75;5092314;28;20024;-76
2022/09/03 04:41:23;;;;;;;7.72;2.72;;;;;;;12.56;83.69;101157.19;5091685;28;20169;-76
2022/09/03 04:43:51;;;;;;;3.88;2.83;;;;;;;12.50;83.99;101155.91;5091668;28;20028;-76
2022/09/03 04:46:17;;;;;;;7.53;2.55;;;;;;;12.44;84.04;101147.66;5092002;28;20066;-77
2022/09/03 04:48:42;;;;;;;6.10;3.30;;;;;;;12.38;84.59;101150.91;5091198;28;20317;-76
2022/09/03 04:51:16;;;;;;;5.00;2.90;;;;;;;12.33;84.67;101156.66;5091670;28;20051;-76
2022/09/03 04:53:47;;;;;;;4.28;2.88;;;;;;;12.29;84.83;101156.09;5091438;28;20127;-76
2022/09/03 04:56:13;;;;;;;6.20;2.50;;;;;;;12.26;85.00;101155.56;5072747;28;20028;-76
2022/09/03 04:58:42;;;;;;;6.70;2.85;;;;;;;12.24;84.90;101152.16;5091412;28;20024;-75
2022/09/03 05:01:12;;;;;;;3.42;2.50;;;;;;;12.22;84.86;101151.47;5091378;28;20130;-75
2022/09/03 05:03:37;;;;;;;3.65;2.80;;;;;;;12.19;84.99;101151.78;5091448;28;20020;-75
2022/09/03 05:06:04;;;;;;;4.65;2.67;;;;;;;12.19;85.86;101159.78;5091441;28;20028;-76
2022/09/03 05:08:30;;;;;;;8.75;2.90;;;;;;;12.16;85.79;101160.88;5090828;28;20355;-76
2022/09/03 05:10:59;;;;;;;10.32;2.58;;;;;;;12.15;85.63;101164.53;5091611;28;20024;-76
2022/09/03 05:13:25;;;;;;;3.40;2.75;;;;;;;12.12;85.91;101164.81;5073480;28;20123;-76
2022/09/03 05:15:50;;;;;;;5.00;2.60;;;;;;;12.12;86.03;101155.00;5092034;28;20151;-76
2022/09/03 05:18:16;;;;;;;3.78;2.58;;;;;;;12.13;86.11;101163.84;5091541;28;20048;-75
2022/09/03 05:20:42;;;;;;;9.60;2.58;;;;;;;12.15;86.25;101160.06;5091985;28;20028;-76
2022/09/03 05:23:07;;;;;;;3.95;2.80;;;;;;;12.18;86.44;101158.91;5073782;28;20028;-76
2022/09/03 05:25:33;;;;;;;8.52;3.15;;;;;;;12.22;86.08;101165.66;5091760;28;20409;-75
2022/09/03 05:27:58;;;;;;;7.20;3.33;;;;;;;12.25;85.96;101162.69;5092758;28;20032;-75
2022/09/03 05:30:25;;;;;;;4.22;2.80;;;;;;;12.29;85.54;101166.78;5093007;28;20499;-76
2022/09/03 05:32:50;;;;;;;4.65;2.70;;;;;;;12.33;85.50;101162.84;5073676;28;20028;-76
2022/09/03 05:35:17;;;;;;;4.95;2.80;;;;;;;12.35;85.47;101154.69;5073480;28;20031;-76
2022/09/03 05:37:43;;;;;;;6.22;2.50;;;;;;;12.39;86.18;101161.44;5091704;28;20035;-75
2022/09/03 05:40:10;;;;;;;5.60;2.70;;;;;;;12.40;85.86;101155.09;5073357;28;20032;-75
2022/09/03 05:42:38;;;;;;;3.38;2.55;;;;;;;12.43;86.16;101159.31;5091493;28;20047;-76
2022/09/03 05:45:09;;;;;;;7.18;2.90;;;;;;;12.46;85.42;101159.84;5091100;28;20034;-75
2022/09/03 05:47:36;;;;;;;5.75;2.90;;;;;;;12.58;84.55;101165.03;5091460;28;20028;-76
2022/09/03 05:50:02;;;;;;;6.15;2.80;;;;;;;12.64;84.35;101165.28;5091466;28;20031;-76
2022/09/03 05:52:27;;;;;;;6.63;2.80;;;;;;;12.72;83.92;101164.59;5091446;28;20028;-76
2022/09/03 05:54:52;;;;;;;3.80;2.65;;;;;;;12.82;82.91;101161.88;5091693;28;20389;-75
2022/09/03 05:57:18;;;;;;;4.20;3.03;;;;;;;12.91;82.77;101160.16;5091306;28;20035;-77
2022/09/03 05:59:43;;;;;;;5.00;2.65;;;;;;;13.00;82.59;101167.28;5090828;28;20036;-76
2022/09/03 06:02:08;;;;;;;8.35;2.60;;;;;;;13.11;81.25;101171.63;5072761;28;20122;-76
2022/09/03 06:04:34;;;;;;;5.18;2.58;;;;;;;13.17;81.74;101169.19;5072506;28;20077;-76
2022/09/03 06:06:59;;;;;;;8.80;2.63;;;;;;;13.25;81.31;101163.09;5072266;28;20118;-77
2022/09/03 06:09:24;;;;;;;7.43;2.50;;;;;;;13.32;81.17;101163.34;5072820;28;20060;-75
2022/09/03 06:11:50;;;;;;;5.47;2.63;;;;;;;13.40;80.19;101167.00;5090356;28;20035;-77
2022/09/03 06:14:16;;;;;;;4.10;2.80;;;;;;;13.50;79.97;101177.63;5090239;28;20390;-77
2022/09/03 06:16:45;;;;;;;5.55;2.45;;;;;;;13.58;80.03;101171.50;5089799;28;20027;-77
2022/09/03 06:19:12;;;;;;;4.15;2.55;;;;;;;13.63;79.60;101179.94;5090242;28;20421;-76
2022/09/03 06:21:41;;;;;;;4.47;2.75;;;;;;;13.71;79.77;101184.53;5089664;28;20019;-76
2022/09/03 06:24:08;;;;;;;6.00;2.67;;;;;;;13.79;79.38;101189.94;5089875;28;20118;-76
2022/09/03 06:26:33;;;;;;;6.45;2.83;;;;;;;13.87;78.77;101190.03;5089820;28;20131;-76
2022/09/03 06:28:59;;;;;;;4.60;2.45;;;;;;;13.96;78.10;101182.09;5090153;28;20024;-77
2022/09/03 06:31:25;;;;;;;8.65;2.83;;;;;;;14.04;78.17;101185.69;5089867;28;20062;-77
2022/09/03 06:33:53;;;;;;;9.75;2.60;;;;;;;14.13;76.86;101180.41;5090264;28;20051;-77
2022/09/03 06:36:21;;;;;;;5.00;2.63;;;;;;;14.22;76.36;101177.63;5089918;28;20031;-75
2022/09/03 06:38:47;;;;;;;4.70;2.78;;;;;;;14.32;77.21;101185.59;5089724;28;20020;-76
2022/09/03 06:41:23;;;;;;;6.03;2.95;;;;;;;14.39;76.05;101181.31;5089930;28;20114;-76
2022/09/03 06:43:56;;;;;;;3.40;2.50;;;;;;;14.50;74.82;101182.06;5089858;28;20045;-76
2022/09/03 06:46:22;;;;;;;6.53;2.90;;;;;;;14.58;74.01;101180.25;5089920;28;20387;-76
2022/09/03 06:48:49;;;;;;;4.80;2.53;;;;;;;14.70;74.20;101185.38;5089618;28;20412;-77
2022/09/03 06:51:20;;;;;;;7.72;2.90;;;;;;;14.78;73.71;101185.44;5071408;28;20458;-76
2022/09/03 06:53:48;;;;;;;4.07;2.72;;;;;;;14.89;72.21;101189.69;5091293;28;20387;-76
2022/09/03 06:56:16;;;;;;;5.68;2.70;;;;;;;14.97;71.85;101185.22;5075866;28;20034;-76
2022/09/03 06:58:44;;;;;;;8.27;3.22;;;;;;;15.08;71.27;101186.78;5094125;28;20032;-77
2022/09/03 07:01:11;;;;;;;5.80;2.83;;;;;;;15.19;69.26;101193.69;5076158;28;20042;-75
2022/09/03 07:03:39;;;;;;;6.10;2.90;;;;;;;15.25;70.02;101190.34;5094752;28;20159;-75
2022/09/03 07:06:08;;;;;;;7.00;2.75;;;;;;;15.36;69.37;101191.94;5094337;28;20024;-76
2022/09/03 07:08:34;;;;;;;5.50;2.50;;;;;;;15.44;68.98;101185.75;5093954;28;20428;-76
2022/09/03 07:11:04;;;;;;;7.97;2.70;;;;;;;15.51;68.80;101184.94;5093948;28;20024;-75
2022/09/03 07:13:29;;;;;;;7.55;2.60;;;;;;;15.60;70.26;101191.16;5094433;28;20028;-75
2022/09/03 07:16:15;;;;;;;12.48;2.80;;;;;;;15.73;68.19;101196.03;5094076;28;20031;-76
2022/09/03 07:18:42;;;;;;;8.88;3.72;;;;;;;15.83;67.81;101193.25;5075161;28;20154;-75
2022/09/03 07:21:20;;;;;;;4.07;3.10;;;;;;;15.91;66.57;101195.09;5093990;28;20042;-76
2022/09/03 07:23:47;;;;;;;6.97;2.50;;;;;;;15.99;67.05;101198.63;5093910;28;20119;-75
2022/09/03 07:26:21;;;;;;;7.53;2.75;;;;;;;16.09;66.25;101189.59;5093747;28;20040;-75
2022/09/03 07:28:47;;;;;;;6.85;2.80;;;;;;;16.18;66.20;101189.44;5094024;28;20024;-77
2022/09/03 07:31:25;;;;;;;6.32;2.83;;;;;;;16.29;66.02;101190.94;5093727;28;20047;-76
2022/09/03 07:33:54;;;;;;;4.85;2.55;;;;;;;16.37;66.11;101192.78;5093693;28;20057;-75
2022/09/03 07:36:20;;;;;;;4.32;2.50;;;;;;;16.49;65.59;101194.09;5093599;28;20115;-76
2022/09/03 07:38:46;;;;;;;5.75;2.60;;;;;;;16.62;64.91;101185.53;5093681;28;20363;-76
2022/09/03 07:41:13;;;;;;;3.08;2.65;;;;;;;16.75;65.43;101193.91;5093760;28;20046;-75
2022/09/03 07:43:47;;;;;;;6.10;2.45;;;;;;;16.87;63.76;101186.34;5093835;28;20046;-76
2022/09/03 07:46:15;;;;;;;11.52;2.88;;;;;;;17.02;62.57;101189.16;5093573;28;20032;-76
2022/09/03 07:48:42;;;;;;;4.65;2.30;;;;;;;17.17;63.11;101191.97;5092953;28;20052;-76
2022/09/03 07:51:07;;;;;;;5.70;2.58;;;;;;;17.34;61.25;101197.28;5093236;28;20035;-76
2022/09/03 07:53:33;;;;;;;7.13;2.75;;;;;;;17.49;62.03;101195.50;5092999;28;20363;-76
2022/09/03 07:56:04;;;;;;;5.10;2.40;;;;;;;17.68;60.92;101198.78;5093259;28;20028;-75
2022/09/03 07:58:33;;;;;;;4.03;2.38;;;;;;;17.84;58.96;101189.75;5093056;28;20020;-75
2022/09/03 08:01:07;;;;;;;5.47;2.30;;;;;;;17.97;59.92;101193.59;5075048;28;20031;-75
2022/09/03 08:03:34;;;;;;;6.05;2.42;;;;;;;18.11;59.22;101200.03;5093134;28;20032;-76
2022/09/03 08:06:05;;;;;;;8.45;2.85;;;;;;;18.39;58.83;101195.94;5073320;28;20111;-77
2022/09/03 08:08:32;;;;;;;9.40;2.50;;;;;;;18.99;56.04;101191.50;5093110;28;20020;-75
2022/09/03 08:11:09;;;;;;;4.65;2.10;;;;;;;19.72;54.02;101189.72;5074488;28;20055;-75
2022/09/03 08:13:39;;;;;;;2.83;2.28;;;;;;;20.44;51.03;101193.31;5074113;28;20060;-77
2022/09/03 08:16:06;;;;;;;7.82;2.67;;;;;;;21.10;50.34;101196.69;5092771;28;20056;-77
2022/09/03 08:18:36;;;;;;;5.88;2.50;;;;;;;21.48;46.94;101207.88;5092095;28;20056;-76
2022/09/03 08:21:03;;;;;;;17.00;2.70;;;;;;;21.73;47.33;101203.84;5093010;28;20145;-77
2022/09/03 08:23:29;;;;;;;6.15;2.25;;;;;;;21.93;46.30;101214.69;5074637;28;20281;-75
2022/09/03 08:26:01;;;;;;;5.15;2.60;;;;;;;22.07;47.95;101212.88;5092339;28;20060;-75
2022/09/03 08:28:27;;;;;;;4.47;2.90;;;;;;;22.12;47.89;101216.59;5092780;28;20107;-74
2022/09/03 08:30:53;;;;;;;4.57;2.53;;;;;;;21.99;47.03;101217.44;5093234;28;20070;-75
2022/09/03 08:33:35;;;;;;;3.28;2.25;;;;;;;21.91;46.02;101222.19;5076100;28;20032;-76
2022/09/03 08:36:12;;;;;;;8.63;2.65;;;;;;;21.63;45.96;101215.03;5079194;28;20077;-74
2022/09/03 08:38:42;;;;;;;9.18;2.58;;;;;;;21.75;47.34;101213.44;5093921;28;20028;-74
2022/09/03 08:41:24;;;;;;;5.32;2.78;;;;;;;21.84;45.72;101212.19;5095635;28;20024;-75
2022/09/03 08:43:52;;;;;;;16.02;3.13;;;;;;;22.16;48.11;101215.16;5092289;28;20039;-74
2022/09/03 08:46:20;;;;;;;11.38;2.63;;;;;;;22.47;48.07;101219.16;5092400;28;20042;-76
2022/09/03 08:48:47;;;;;;;2.70;2.30;;;;;;;22.57;46.66;101215.19;5074268;28;20055;-76
2022/09/03 08:51:15;;;;;;;6.57;2.05;;;;;;;22.76;45.21;101221.66;5092754;28;20031;-76
2022/09/03 08:53:50;;;;;;;3.15;2.20;;;;;;;23.21;44.86;101209.06;5057993;28;20119;-77
2022/09/03 08:56:27;;;;;;;5.10;2.22;;;;;;;23.87;43.61;101215.25;5092560;28;20070;-77
2022/09/03 08:58:53;;;;;;;4.45;2.70;;;;;;;24.56;41.17;101217.25;5092485;28;20035;-77
2022/09/03 09:01:30;;;;;;;5.60;2.30;;;;;;;25.75;39.67;101218.84;5073963;28;20084;-77
2022/09/03 09:04:21;;;;;;;7.38;2.33;;;;;;;27.20;36.70;101216.66;5092279;28;20070;-77
2022/09/03 09:07:13;;;;;;;6.07;2.47;;;;;;;28.15;33.98;101214.38;5091860;28;20043;-77
2022/09/03 09:10:18;;;;;;;3.17;2.13;;;;;;;29.07;31.42;101208.66;5090889;28;20039;-77
2022/09/03 09:12:47;;;;;;;7.60;2.60;;;;;;;29.67;30.50;101208.84;5091448;28;20153;-77
2022/09/03 09:15:59;;;;;;;5.07;1.98;;;;;;;30.13;31.04;101214.78;5091182;28;20112;-76
2022/09/03 09:18:36;;;;;;;5.55;2.20;;;;;;;30.46;28.92;101215.59;5056821;28;20119;-77
2022/09/03 09:21:27;;;;;;;10.52;2.40;;;;;;;30.29;29.71;101225.88;5091739;28;20094;-78
2022/09/03 09:23:56;;;;;;;7.05;2.30;;;;;;;31.00;28.44;101220.06;5091384;28;20440;-77
2022/09/03 09:26:22;;;;;;;3.72;2.20;;;;;;;31.47;28.60;101221.09;5091528;28;20016;-77
2022/09/03 09:29:09;;;;;;;6.85;3.03;;;;;;;31.58;28.17;101217.28;5091333;28;20176;-76
2022/09/03 09:31:37;;;;;;;3.15;2.22;;;;;;;31.61;26.89;101233.25;5091434;28;20408;-76
2022/09/03 09:34:05;;;;;;;4.57;2.10;;;;;;;31.03;28.59;101225.03;5090919;28;20551;-77
2022/09/03 09:36:42;;;;;;;12.20;2.17;;;;;;;31.50;27.37;101223.31;5091066;28;20141;-74
2022/09/03 09:39:09;;;;;;;12.15;2.28;;;;;;;31.70;26.21;101229.97;5090792;28;20024;-75
2022/09/03 09:41:34;;;;;;;3.42;1.80;;;;;;;31.66;26.12;101217.84;5090803;28;20081;-77
2022/09/03 09:44:02;;;;;;;6.07;2.00;;;;;;;31.70;26.71;101207.97;5091080;28;20032;-76
2022/09/03 09:46:39;;;;;;;11.10;1.98;;;;;;;32.32;26.34;101212.44;5090639;28;20028;-76
2022/09/03 09:49:30;;;;;;;7.03;2.03;;;;;;;32.47;25.81;101208.81;5090982;28;20115;-77
2022/09/03 09:52:06;;;;;;;6.95;2.17;;;;;;;31.77;25.25;101208.50;5072869;28;20411;-75
2022/09/03 09:54:32;;;;;;;4.95;1.95;;;;;;;32.02;25.50;101204.94;5090808;28;20039;-76
2022/09/03 09:57:05;;;;;;;3.90;2.30;;;;;;;31.84;26.58;101209.06;5072185;28;20043;-76
2022/09/03 09:59:31;;;;;;;14.40;2.30;;;;;;;32.44;25.76;101211.28;5090668;28;20103;-76
2022/09/03 10:02:10;;;;;;;2.10;1.90;;;;;;;32.15;25.47;101204.44;5090466;28;20048;-76
2022/09/03 10:04:36;;;;;;;9.20;1.80;;;;;;;32.58;25.25;101206.88;5072444;28;20517;-76
2022/09/03 10:07:26;;;;;;;3.38;1.80;;;;;;;32.56;24.98;101202.75;5090551;28;20304;-77
2022/09/03 10:10:03;;;;;;;4.88;1.95;;;;;;;32.80;24.09;101197.47;5072720;28;20173;-77
2022/09/03 10:12:42;;;;;;;3.30;1.80;;;;;;;33.00;24.13;101186.38;5090566;28;20058;-76
2022/09/03 10:15:16;;;;;;;6.88;1.95;;;;;;;32.47;26.12;101205.22;5091042;28;20020;-75
2022/09/03 10:17:45;;;;;;;3.00;2.10;;;;;;;32.97;24.68;101197.97;5090921;28;20114;-76
2022/09/03 10:20:35;;;;;;;5.43;1.80;;;;;;;33.44;24.77;101197.78;5091078;28;20191;-76
2022/09/03 10:23:10;;;;;;;5.05;1.90;;;;;;;33.31;24.17;101200.06;5080529;28;20036;-75
2022/09/03 10:26:06;;;;;;;6.25;1.83;;;;;;;33.43;23.87;101196.09;5090570;28;20115;-76
2022/09/03 10:28:39;;;;;;;4.13;1.70;;;;;;;33.58;23.69;101196.03;5089612;28;20048;-75
2022/09/03 10:31:30;;;;;;;4.68;1.90;;;;;;;33.21;23.75;101194.59;5091179;28;20020;-75
2022/09/03 10:34:17;;;;;;;5.65;2.03;;;;;;;33.10;24.73;101198.47;5090178;28;20125;-76
2022/09/03 10:36:58;;;;;;;10.20;2.20;;;;;;;33.02;24.70;101197.97;5090594;28;20512;-76
2022/09/03 10:39:57;;;;;;;3.72;1.48;;;;;;;33.20;25.05;101191.03;5090381;28;20471;-75
2022/09/03 10:42:23;;;;;;;4.20;1.98;;;;;;;33.96;23.29;101198.28;5090507;28;20032;-76
2022/09/03 10:45:05;;;;;;;9.00;1.97;;;;;;;33.39;23.35;101193.13;5090307;28;20046;-75
2022/09/03 10:47:52;;;;;;;4.80;1.83;;;;;;;33.70;23.50;101196.50;5089873;28;20266;-75
2022/09/03 10:50:25;;;;;;;4.80;1.70;;;;;;;33.54;24.02;101194.94;5089842;28;20060;-75
2022/09/03 10:52:57;;;;;;;6.72;1.90;;;;;;;33.54;22.88;101205.97;5089968;28;20020;-75
2022/09/03 10:56:00;;;;;;;9.82;1.80;;;;;;;33.77;23.55;101198.13;5090529;28;20394;-75
2022/09/03 10:58:37;;;;;;;8.05;1.90;;;;;;;33.74;21.95;101188.53;5087371;28;20035;-75
2022/09/03 11:01:27;;;;;;;5.05;2.00;;;;;;;33.91;24.35;101193.63;5090272;28;20419;-76
2022/09/03 11:04:13;;;;;;;;;;;;;;;33.89;22.92;101195.84;5072393;28;20031;-76
2022/09/03 11:06:50;;;;;;;6.78;1.85;;;;;;;33.84;23.31;101198.63;5090218;28;19908;-76
2022/09/03 11:09:27;;;;;;;5.28;1.90;;;;;;;33.38;22.96;101200.56;5072189;28;20068;-76
2022/09/03 11:12:11;;;;;;;8.80;2.13;;;;;;;33.71;22.90;101194.56;5090001;28;20077;-77
2022/09/03 11:14:45;;;;;;;8.27;2.00;;;;;;;33.29;23.50;101202.28;5089916;28;20024;-75
2022/09/03 11:17:19;;;;;;;5.60;1.95;;;;;;;33.34;23.33;101201.44;5089932;28;20468;-75
2022/09/03 11:19:50;;;;;;;6.70;1.83;;;;;;;33.45;23.76;101210.47;5089502;28;20036;-74
2022/09/03 11:22:17;;;;;;;3.67;1.90;;;;;;;33.14;23.52;101211.41;5071473;28;20077;-76
2022/09/03 11:24:49;;;;;;;4.95;1.95;;;;;;;32.91;24.24;101214.81;5089543;28;20032;-75
2022/09/03 11:27:29;;;;;;;4.30;2.03;;;;;;;32.67;23.60;101209.91;5090129;28;20509;-76
2022/09/03 11:30:06;;;;;;;7.80;2.28;;;;;;;32.74;23.98;101207.69;5090000;28;20020;-75
2022/09/03 11:32:51;;;;;;;6.22;1.90;;;;;;;32.88;23.84;101205.16;5090152;28;20106;-74
2022/09/03 11:35:32;;;;;;;3.92;1.80;;;;;;;33.19;24.55;101197.59;5089775;28;20077;-75
2022/09/03 11:37:59;;;;;;;4.80;2.17;;;;;;;33.08;23.68;101201.50;5089746;28;20097;-75
2022/09/03 11:40:36;;;;;;;4.85;1.75;;;;;;;33.10;24.01;101195.69;5092615;28;20035;-76
2022/09/03 11:43:29;;;;;;;6.65;2.30;;;;;;;32.94;23.54;101203.22;5093830;28;20020;-74
2022/09/03 11:46:01;;;;;;;8.85;2.30;;;;;;;32.74;23.80;101198.59;5090586;28;20032;-75
2022/09/03 11:48:45;;;;;;;3.70;1.90;;;;;;;33.08;25.35;101189.66;5093464;28;20118;-75
2022/09/03 11:51:28;;;;;;;19.10;2.53;;;;;;;32.87;24.77;101195.25;5093829;28;20097;-74
2022/09/03 11:54:25;;;;;;;11.32;2.47;;;;;;;32.61;26.25;101186.22;5093709;28;20059;-75